Time;durP1;ratioP1;P1;durP2;ratioP2;P2;SDS_P1;SDS_P2;PMS_P1;PMS_P2;Temp;Humidity;BMP_temperature;BMP_pressure;BME280_temperature;BME280_humidity;BME280_pressure;Samples;Min_cycle;Max_cycle;Signal;HPM_P1;HPM_P2
2023/09/23 00:00:46;;;;;;;19.52;17.60;;;19.80;62.50;;;;;;5010030;28;114574;-80
2023/09/23 00:03:13;;;;;;;15.77;14.18;;;19.80;62.30;;;;;;5010412;28;114386;-79
2023/09/23 00:05:41;;;;;;;18.00;16.20;;;19.80;62.30;;;;;;5010026;28;114639;-79
2023/09/23 00:08:08;;;;;;;16.80;15.00;;;19.80;62.40;;;;;;4991114;28;115386;-80
2023/09/23 00:10:37;;;;;;;19.50;15.70;;;19.80;62.40;;;;;;5027203;28;114674;-79
2023/09/23 00:13:04;;;;;;;15.95;14.20;;;19.80;62.20;;;;;;5028004;28;114113;-80
2023/09/23 00:15:34;;;;;;;16.15;14.45;;;19.80;62.10;;;;;;5010262;28;114205;-79
2023/09/23 00:18:02;;;;;;;14.60;12.73;;;19.80;62.00;;;;;;5026842;28;114818;-79
2023/09/23 00:20:29;;;;;;;12.35;11.23;;;19.80;61.90;;;;;;4992706;28;114545;-80
2023/09/23 00:22:56;;;;;;;13.38;10.63;;;19.80;61.90;;;;;;5028070;28;114117;-79
2023/09/23 00:25:24;;;;;;;12.45;11.20;;;19.80;62.00;;;;;;5028756;28;114260;-79
2023/09/23 00:27:54;;;;;;;9.50;7.40;;;19.80;61.40;;;;;;5009148;28;115007;-79
2023/09/23 00:30:22;;;;;;;10.73;9.05;;;19.60;62.00;;;;;;5025834;28;115005;-80
2023/09/23 00:32:50;;;;;;;12.70;9.85;;;19.70;61.70;;;;;;4992920;28;114271;-79
2023/09/23 00:35:18;;;;;;;9.82;8.75;;;19.80;61.70;;;;;;5009527;28;114254;-79
2023/09/23 00:37:48;;;;;;;9.35;7.63;;;19.80;61.10;;;;;;5027516;28;115494;-79
2023/09/23 00:40:27;;;;;;;9.95;7.97;;;19.80;61.30;;;;;;4992360;28;116493;-80
2023/09/23 00:43:05;;;;;;;8.77;7.13;;;19.80;61.50;;;;;;5028811;28;114429;-80
2023/09/23 00:45:33;;;;;;;12.48;8.77;;;19.90;61.40;;;;;;5014724;28;114489;-79
2023/09/23 00:48:01;;;;;;;10.20;8.23;;;20.10;60.80;;;;;;5001596;28;114933;-79
2023/09/23 00:50:29;;;;;;;9.10;6.70;;;20.00;60.50;;;;;;5015917;28;114912;-80
2023/09/23 00:52:56;;;;;;;9.43;6.80;;;20.00;60.50;;;;;;4993752;28;114369;-79
2023/09/23 00:55:26;;;;;;;8.40;6.90;;;20.00;60.40;;;;;;5009628;28;114430;-80
2023/09/23 00:57:59;;;;;;;7.13;5.63;;;20.10;60.20;;;;;;5009891;28;114982;-79
2023/09/23 01:00:29;;;;;;;7.73;6.60;;;20.20;60.20;;;;;;5032918;28;115289;-79
2023/09/23 01:02:57;;;;;;;6.85;5.93;;;20.20;60.00;;;;;;5000847;28;114366;-80
2023/09/23 01:05:29;;;;;;;7.22;5.68;;;20.20;59.90;;;;;;5027682;28;114414;-79
2023/09/23 01:08:00;;;;;;;7.72;5.00;;;20.30;59.90;;;;;;4992768;28;115040;-80
2023/09/23 01:10:28;;;;;;;7.25;5.63;;;20.30;59.80;;;;;;5026350;28;115275;-80
2023/09/23 01:12:56;;;;;;;6.43;5.65;;;20.40;59.40;;;;;;5009644;28;114165;-80
2023/09/23 01:15:25;;;;;;;6.10;5.05;;;20.50;59.10;;;;;;5027899;28;114182;-79
2023/09/23 01:17:54;;;;;;;6.72;5.22;;;20.40;59.20;;;;;;5008829;28;115074;-79
2023/09/23 01:20:21;;;;;;;7.05;5.85;;;20.30;59.00;;;;;;5026116;28;114627;-79
2023/09/23 01:22:49;;;;;;;8.57;6.50;;;20.20;59.10;;;;;;4992177;28;114199;-79
2023/09/23 01:25:17;;;;;;;6.43;5.20;;;20.00;59.60;;;;;;4991595;28;114307;-79
2023/09/23 01:27:45;;;;;;;6.35;5.60;;;20.00;59.90;;;;;;5008363;28;115009;-79
2023/09/23 01:30:13;;;;;;;7.03;6.32;;;20.10;59.60;;;;;;5008068;28;114774;-81
2023/09/23 01:32:48;;;;;;;7.63;6.68;;;20.10;59.50;;;;;;5008912;28;114226;-79
2023/09/23 01:35:20;;;;;;;6.95;4.30;;;20.00;59.70;;;;;;4992869;28;114623;-81
2023/09/23 01:37:48;;;;;;;6.60;5.70;;;20.00;60.20;;;;;;4991261;28;117699;-80
2023/09/23 01:40:17;;;;;;;6.90;5.10;;;20.00;59.90;;;;;;5007395;28;116128;-79
2023/09/23 01:42:46;;;;;;;7.05;6.18;;;20.10;59.70;;;;;;5009436;28;114266;-79
2023/09/23 01:45:14;;;;;;;5.80;4.63;;;20.10;59.70;;;;;;5033327;27;114220;-80
2023/09/23 01:47:41;;;;;;;6.43;4.00;;;20.20;59.60;;;;;;5027562;27;116208;-80
2023/09/23 01:50:10;;;;;;;6.15;4.60;;;20.20;59.60;;;;;;5046071;27;114735;-81
2023/09/23 01:52:40;;;;;;;6.43;4.63;;;20.30;59.40;;;;;;5047180;27;114475;-80
2023/09/23 01:55:11;;;;;;;5.45;4.25;;;20.30;59.30;;;;;;5028482;27;114418;-80
2023/09/23 01:57:39;;;;;;;6.28;4.93;;;20.30;59.20;;;;;;5046509;27;114879;-78
2023/09/23 02:00:08;;;;;;;4.90;3.88;;;20.40;58.90;;;;;;5011266;27;115278;-78
2023/09/23 02:02:38;;;;;;;5.00;3.70;;;20.40;58.90;;;;;;5029278;27;114515;-80
2023/09/23 02:05:06;;;;;;;5.72;3.80;;;20.40;58.70;;;;;;5028637;27;114402;-80
2023/09/23 02:07:33;;;;;;;6.97;4.00;;;20.40;58.80;;;;;;5027609;27;115169;-79
2023/09/23 02:10:01;;;;;;;5.20;3.83;;;20.50;58.80;;;;;;5027660;27;114574;-80
2023/09/23 02:12:32;;;;;;;5.30;4.00;;;20.50;58.50;;;;;;5028163;27;114383;-79
2023/09/23 02:14:59;;;;;;;5.40;3.97;;;20.50;58.30;;;;;;5046876;27;114319;-79
2023/09/23 02:17:26;;;;;;;4.75;3.65;;;20.50;58.00;;;;;;5027453;27;114832;-79
2023/09/23 02:19:53;;;;;;;4.93;3.50;;;20.50;58.10;;;;;;5031148;27;114878;-80
2023/09/23 02:22:23;;;;;;;5.05;4.07;;;20.60;58.20;;;;;;5050506;27;114219;-79
2023/09/23 02:24:50;;;;;;;5.97;3.63;;;20.60;58.00;;;;;;5050900;27;114166;-80
2023/09/23 02:27:17;;;;;;;6.13;4.88;;;20.60;58.20;;;;;;4997270;27;115504;-79
2023/09/23 02:29:45;;;;;;;5.28;3.47;;;20.60;57.90;;;;;;5014973;27;114670;-79
2023/09/23 02:32:12;;;;;;;5.50;3.67;;;20.50;58.00;;;;;;5032064;27;114275;-79
2023/09/23 02:34:39;;;;;;;4.80;3.30;;;20.60;58.00;;;;;;5015416;27;114845;-81
2023/09/23 02:37:06;;;;;;;4.32;3.20;;;20.60;57.90;;;;;;5049510;27;114913;-80
2023/09/23 02:39:34;;;;;;;4.63;3.03;;;20.50;57.70;;;;;;4997917;27;114641;-79
2023/09/23 02:42:04;;;;;;;4.22;3.08;;;20.60;57.80;;;;;;4998733;27;114357;-79
2023/09/23 02:44:31;;;;;;;4.68;3.03;;;20.50;57.70;;;;;;5015410;27;114104;-79
2023/09/23 02:46:58;;;;;;;5.55;4.38;;;20.50;58.00;;;;;;5030792;27;115183;-79
2023/09/23 02:49:25;;;;;;;6.13;4.90;;;20.50;58.00;;;;;;4997835;27;114684;-78
2023/09/23 02:51:53;;;;;;;6.05;4.88;;;20.50;58.00;;;;;;5049487;27;114339;-79
2023/09/23 02:54:20;;;;;;;6.05;4.78;;;20.60;58.00;;;;;;5032032;27;114269;-80
2023/09/23 02:56:48;;;;;;;6.78;5.65;;;20.50;57.80;;;;;;5030567;27;115524;-80
2023/09/23 02:59:18;;;;;;;3.70;2.72;;;20.60;57.60;;;;;;5030332;27;115585;-80
2023/09/23 03:01:45;;;;;;;5.43;3.80;;;20.50;57.90;;;;;;5031793;27;114112;-80
2023/09/23 03:04:16;;;;;;;3.60;2.30;;;20.60;57.50;;;;;;5050001;27;113997;-79
2023/09/23 03:06:50;;;;;;;3.55;2.47;;;20.50;57.80;;;;;;5030448;27;114939;-80
2023/09/23 03:09:23;;;;;;;3.80;2.88;;;20.60;57.70;;;;;;5014700;27;115176;-80
2023/09/23 03:11:55;;;;;;;4.18;2.78;;;20.50;57.70;;;;;;5031208;27;114404;-79
2023/09/23 03:14:28;;;;;;;5.15;3.08;;;20.50;57.80;;;;;;5016272;27;114316;-79
2023/09/23 03:16:57;;;;;;;3.78;2.60;;;20.50;57.60;;;;;;5014539;27;114894;-80
2023/09/23 03:19:27;;;;;;;6.38;3.15;;;20.60;57.90;;;;;;5030572;27;114725;-79
2023/09/23 03:21:57;;;;;;;4.10;2.28;;;20.50;57.90;;;;;;5014315;27;114314;-80
2023/09/23 03:24:25;;;;;;;3.85;2.55;;;20.50;57.80;;;;;;5014968;27;114170;-80
2023/09/23 03:26:54;;;;;;;3.50;2.42;;;20.50;57.90;;;;;;4996676;27;114969;-79
2023/09/23 03:29:22;;;;;;;4.95;2.30;;;20.50;57.90;;;;;;5012322;27;117247;-79
2023/09/23 03:31:49;;;;;;;4.20;2.80;;;20.60;57.90;;;;;;5013737;27;114327;-80
2023/09/23 03:34:18;;;;;;;3.85;2.63;;;20.60;57.80;;;;;;5049386;27;114346;-79
2023/09/23 03:36:46;;;;;;;3.97;2.20;;;20.60;57.70;;;;;;5032057;27;115496;-80
2023/09/23 03:39:13;;;;;;;3.03;2.10;;;20.60;57.60;;;;;;5056735;27;114830;-79
2023/09/23 03:41:42;;;;;;;4.72;2.75;;;20.60;57.60;;;;;;5051656;27;114179;-78
2023/09/23 03:44:09;;;;;;;3.50;2.25;;;20.60;57.50;;;;;;5017446;27;114129;-80
2023/09/23 03:46:38;;;;;;;3.25;2.40;;;20.60;57.60;;;;;;5031116;27;114342;-79
2023/09/23 03:49:06;;;;;;;4.70;3.17;;;20.60;57.60;;;;;;5030574;27;115729;-79
2023/09/23 03:51:36;;;;;;;3.38;2.30;;;20.60;57.40;;;;;;5018956;27;114366;-80
2023/09/23 03:54:04;;;;;;;4.75;2.40;;;20.60;57.70;;;;;;5021244;27;114331;-80
2023/09/23 03:56:33;;;;;;;3.55;2.72;;;20.60;57.70;;;;;;5051160;27;114807;-80
2023/09/23 03:59:05;;;;;;;3.40;1.90;;;20.60;57.50;;;;;;5013881;27;114697;-80
2023/09/23 04:01:33;;;;;;;3.42;2.53;;;20.60;57.50;;;;;;5031317;27;114215;-79
2023/09/23 04:04:01;;;;;;;4.05;1.70;;;20.70;57.40;;;;;;5030967;27;114476;-80
2023/09/23 04:06:30;;;;;;;3.28;2.28;;;20.70;57.40;;;;;;5029216;27;115681;-80
2023/09/23 04:08:58;;;;;;;4.65;2.42;;;20.70;57.20;;;;;;5029754;27;114392;-80
2023/09/23 04:11:26;;;;;;;3.30;1.95;;;20.70;57.20;;;;;;5014387;27;114342;-80
2023/09/23 04:13:53;;;;;;;4.78;2.80;;;20.70;57.20;;;;;;5030526;27;114343;-79
2023/09/23 04:16:21;;;;;;;4.25;2.95;;;20.70;57.20;;;;;;5047254;27;114969;-80
2023/09/23 04:18:51;;;;;;;2.72;1.65;;;20.60;57.30;;;;;;5047281;27;115273;-79
2023/09/23 04:21:21;;;;;;;3.35;2.20;;;20.60;57.40;;;;;;5030227;27;114185;-79
2023/09/23 04:23:52;;;;;;;3.42;1.88;;;20.50;57.60;;;;;;5032917;27;114069;-79
2023/09/23 04:26:21;;;;;;;3.20;1.85;;;20.50;57.60;;;;;;5048255;27;115571;-78
2023/09/23 04:28:52;;;;;;;2.70;1.48;;;20.60;57.60;;;;;;5047457;27;115222;-79
2023/09/23 04:31:19;;;;;;;3.78;2.50;;;20.60;57.60;;;;;;5048425;27;114260;-78
2023/09/23 04:33:47;;;;;;;3.50;3.08;;;20.60;57.30;;;;;;5030878;27;114397;-79
2023/09/23 04:36:14;;;;;;;3.33;2.35;;;20.70;57.10;;;;;;5030456;27;115434;-80
2023/09/23 04:38:43;;;;;;;3.60;2.60;;;20.60;57.10;;;;;;5029814;27;114980;-79
2023/09/23 04:41:11;;;;;;;2.88;1.77;;;20.60;57.10;;;;;;5012531;27;114319;-79
2023/09/23 04:43:39;;;;;;;3.00;1.80;;;20.50;57.40;;;;;;5048479;27;113964;-79
2023/09/23 04:46:07;;;;;;;3.28;2.05;;;20.60;57.60;;;;;;5029312;27;114885;-79
2023/09/23 04:48:34;;;;;;;3.45;2.50;;;20.60;57.60;;;;;;5046864;27;115035;-79
2023/09/23 04:51:03;;;;;;;3.85;2.72;;;20.60;57.50;;;;;;5047833;27;113962;-78
2023/09/23 04:53:30;;;;;;;3.40;1.45;;;20.70;57.40;;;;;;5048006;27;114506;-79
2023/09/23 04:55:58;;;;;;;3.72;3.33;;;20.60;57.40;;;;;;5029078;27;115348;-78
2023/09/23 04:58:25;;;;;;;3.05;2.13;;;20.60;57.30;;;;;;5029235;27;115060;-79
2023/09/23 05:00:52;;;;;;;4.50;3.00;;;20.50;57.40;;;;;;5029629;27;114140;-80
2023/09/23 05:03:19;;;;;;;4.13;2.58;;;20.40;57.80;;;;;;5048003;27;114076;-79
2023/09/23 05:05:46;;;;;;;3.80;2.67;;;20.40;57.90;;;;;;5046724;27;114922;-80
2023/09/23 05:08:13;;;;;;;2.95;1.90;;;20.40;57.80;;;;;;5046538;27;116334;-79
2023/09/23 05:10:41;;;;;;;5.47;3.80;;;20.40;57.80;;;;;;5047918;27;114332;-79
2023/09/23 05:13:08;;;;;;;3.80;2.95;;;20.40;57.80;;;;;;5029422;27;114496;-79
2023/09/23 05:15:35;;;;;;;6.22;5.60;;;20.40;58.00;;;;;;5012439;27;115537;-79
2023/09/23 05:18:03;;;;;;;3.88;3.30;;;20.40;58.20;;;;;;5046657;27;114728;-78
2023/09/23 05:20:30;;;;;;;5.72;4.35;;;20.30;57.90;;;;;;5029106;27;114101;-79
2023/09/23 05:23:00;;;;;;;6.18;4.72;;;20.30;58.10;;;;;;5029398;27;114436;-80
2023/09/23 05:25:28;;;;;;;4.53;3.88;;;20.30;58.10;;;;;;4995031;27;115641;-79
2023/09/23 05:27:56;;;;;;;3.55;2.42;;;20.30;58.20;;;;;;5046249;27;114816;-80
2023/09/23 05:30:26;;;;;;;4.45;3.85;;;20.30;58.20;;;;;;4994965;27;114225;-80
2023/09/23 05:32:53;;;;;;;7.18;5.90;;;20.40;58.20;;;;;;5029551;27;114209;-79
2023/09/23 05:35:21;;;;;;;3.75;2.10;;;20.40;58.10;;;;;;5046292;27;114990;-79
2023/09/23 05:37:49;;;;;;;3.67;2.60;;;20.40;58.10;;;;;;5028142;27;114693;-79
2023/09/23 05:40:26;;;;;;;4.82;3.17;;;20.50;58.00;;;;;;5050450;27;114163;-79
2023/09/23 05:42:54;;;;;;;3.50;2.78;;;20.50;57.90;;;;;;5046940;27;114192;-79
2023/09/23 05:45:24;;;;;;;5.55;4.72;;;20.60;57.80;;;;;;5045912;27;114940;-79
2023/09/23 05:47:52;;;;;;;3.45;1.85;;;20.60;57.70;;;;;;4995761;27;117891;-79
2023/09/23 05:50:20;;;;;;;7.15;5.60;;;20.70;57.60;;;;;;5046838;27;114363;-79
2023/09/23 05:52:48;;;;;;;3.83;2.92;;;20.70;57.60;;;;;;5028365;27;114284;-79
2023/09/23 05:55:15;;;;;;;4.68;3.28;;;20.70;57.60;;;;;;5027349;27;114830;-79
2023/09/23 05:57:43;;;;;;;4.32;3.42;;;20.60;57.60;;;;;;5027886;27;115074;-79
2023/09/23 06:00:11;;;;;;;6.75;4.82;;;20.50;57.70;;;;;;5046604;27;114304;-79
2023/09/23 06:02:39;;;;;;;7.60;5.25;;;20.50;58.00;;;;;;5028800;27;114166;-80
2023/09/23 06:05:06;;;;;;;4.13;3.63;;;20.60;57.90;;;;;;5045296;27;116364;-79
2023/09/23 06:07:34;;;;;;;3.85;3.10;;;20.50;57.90;;;;;;5045568;27;114652;-80
2023/09/23 06:10:02;;;;;;;5.20;4.07;;;20.50;58.10;;;;;;5046595;27;114139;-79
2023/09/23 06:12:29;;;;;;;7.85;5.13;;;20.40;58.00;;;;;;5046725;27;114118;-79
2023/09/23 06:14:58;;;;;;;7.53;5.80;;;20.50;58.10;;;;;;5045352;27;116147;-78
2023/09/23 06:17:27;;;;;;;3.55;2.53;;;20.50;57.80;;;;;;5027317;27;114673;-79
2023/09/23 06:19:58;;;;;;;5.00;3.70;;;20.40;58.00;;;;;;5010397;27;114211;-78
2023/09/23 06:22:26;;;;;;;11.02;8.65;;;20.30;58.30;;;;;;5046837;27;114221;-79
2023/09/23 06:24:53;;;;;;;7.80;6.15;;;20.30;58.40;;;;;;5046030;27;114930;-80
2023/09/23 06:27:20;;;;;;;5.50;4.03;;;20.30;58.40;;;;;;5027956;27;115075;-78
2023/09/23 06:29:47;;;;;;;4.25;3.13;;;20.20;58.50;;;;;;5046997;27;116154;-80
2023/09/23 06:32:14;;;;;;;6.97;5.97;;;20.20;58.60;;;;;;4980493;27;114378;-79
2023/09/23 06:34:41;;;;;;;4.18;2.78;;;20.20;58.70;;;;;;5047503;27;115017;-79
2023/09/23 06:37:08;;;;;;;4.85;4.03;;;20.20;58.70;;;;;;5029072;27;114270;-80
2023/09/23 06:39:35;;;;;;;6.15;4.03;;;20.20;58.70;;;;;;5046423;27;114078;-80
2023/09/23 06:42:03;;;;;;;6.43;4.75;;;20.30;58.60;;;;;;5028452;27;114353;-80
2023/09/23 06:44:30;;;;;;;4.88;3.53;;;20.30;58.50;;;;;;5027442;27;114912;-80
2023/09/23 06:46:57;;;;;;;5.68;4.25;;;20.30;58.50;;;;;;5028541;27;114642;-81
2023/09/23 06:49:26;;;;;;;6.43;4.82;;;20.30;58.40;;;;;;5029535;27;114139;-80
2023/09/23 06:51:53;;;;;;;8.57;7.47;;;20.30;58.30;;;;;;5028437;27;114410;-79
2023/09/23 06:54:21;;;;;;;8.88;7.75;;;20.30;58.40;;;;;;5010545;27;115263;-79
2023/09/23 06:56:48;;;;;;;3.92;3.00;;;20.20;58.60;;;;;;5027572;27;114561;-79
2023/09/23 06:59:15;;;;;;;5.03;3.38;;;20.30;58.70;;;;;;5011359;27;114210;-79
2023/09/23 07:01:42;;;;;;;4.30;3.55;;;20.30;58.60;;;;;;5046696;27;114008;-80
2023/09/23 07:04:09;;;;;;;5.10;4.35;;;20.30;58.60;;;;;;5045150;27;116676;-80
2023/09/23 07:06:36;;;;;;;5.47;4.75;;;20.30;58.60;;;;;;5031397;27;114649;-80
2023/09/23 07:09:07;;;;;;;8.77;7.60;;;20.40;58.70;;;;;;5049245;27;114333;-79
2023/09/23 07:11:34;;;;;;;4.65;3.25;;;20.40;58.50;;;;;;5049927;27;114389;-80
2023/09/23 07:14:05;;;;;;;6.20;5.13;;;20.40;58.40;;;;;;5013826;27;115620;-79
2023/09/23 07:16:36;;;;;;;4.30;3.53;;;20.40;58.40;;;;;;5048820;27;114723;-80
2023/09/23 07:19:03;;;;;;;5.47;4.13;;;20.40;58.30;;;;;;5049653;27;114911;-79
2023/09/23 07:21:30;;;;;;;5.68;4.90;;;20.40;58.30;;;;;;5049580;27;114192;-80
2023/09/23 07:23:58;;;;;;;6.07;5.40;;;20.50;58.30;;;;;;5048519;27;115115;-79
2023/09/23 07:26:25;;;;;;;6.00;4.20;;;20.50;58.20;;;;;;5048828;27;114901;-79
2023/09/23 07:28:53;;;;;;;3.83;3.08;;;20.40;58.30;;;;;;5030823;27;114288;-79
2023/09/23 07:31:21;;;;;;;6.10;4.82;;;20.40;58.30;;;;;;5031126;27;114365;-79
2023/09/23 07:33:48;;;;;;;4.05;3.60;;;20.40;58.30;;;;;;5047739;27;115245;-78
2023/09/23 07:36:16;;;;;;;4.60;4.05;;;20.50;58.20;;;;;;5013026;27;119648;-79
2023/09/23 07:38:43;;;;;;;4.30;3.70;;;20.50;58.10;;;;;;5014554;27;114251;-80
2023/09/23 07:41:11;;;;;;;4.75;3.25;;;20.50;58.00;;;;;;5048986;27;114152;-80
2023/09/23 07:43:39;;;;;;;4.78;3.65;;;20.60;57.90;;;;;;5030040;27;114908;-80
2023/09/23 07:46:06;;;;;;;3.85;3.40;;;20.50;57.90;;;;;;5030168;27;115261;-80
2023/09/23 07:48:34;;;;;;;4.13;3.30;;;20.60;57.80;;;;;;5030669;27;114385;-80
2023/09/23 07:51:01;;;;;;;5.82;3.78;;;20.60;57.70;;;;;;5049269;27;114292;-80
2023/09/23 07:53:28;;;;;;;5.47;4.10;;;20.60;57.60;;;;;;5047832;27;114823;-79
2023/09/23 07:55:55;;;;;;;4.70;3.55;;;20.70;57.60;;;;;;5047897;27;114865;-81
2023/09/23 07:58:22;;;;;;;4.35;3.60;;;20.70;57.60;;;;;;5013315;27;114415;-79
2023/09/23 08:00:49;;;;;;;4.47;3.00;;;20.70;57.50;;;;;;5049145;27;114239;-80
2023/09/23 08:03:16;;;;;;;5.18;3.65;;;20.70;57.50;;;;;;5048100;27;115136;-80
2023/09/23 08:05:43;;;;;;;4.65;3.58;;;20.60;57.50;;;;;;5047377;27;114796;-80
2023/09/23 08:08:10;;;;;;;4.10;3.40;;;20.60;57.60;;;;;;5048569;27;114421;-80
2023/09/23 08:10:37;;;;;;;5.05;3.33;;;20.60;57.60;;;;;;5048624;27;114351;-79
2023/09/23 08:13:04;;;;;;;4.50;3.20;;;20.50;57.70;;;;;;5012020;27;117491;-79
2023/09/23 08:15:32;;;;;;;4.78;3.05;;;20.50;57.80;;;;;;5047619;27;116046;-80
2023/09/23 08:17:59;;;;;;;4.18;3.00;;;20.40;57.70;;;;;;5048216;27;114162;-79
2023/09/23 08:20:26;;;;;;;3.95;3.00;;;20.40;57.80;;;;;;5048368;27;114196;-80
2023/09/23 08:22:53;;;;;;;4.28;2.65;;;20.30;58.00;;;;;;5047042;27;114980;-80
2023/09/23 08:25:25;;;;;;;3.92;2.78;;;20.20;58.20;;;;;;5047441;27;114688;-80
2023/09/23 08:27:53;;;;;;;5.57;2.75;;;20.20;58.60;;;;;;5030582;27;114228;-80
2023/09/23 08:30:21;;;;;;;3.58;2.63;;;20.20;58.60;;;;;;5030581;27;114180;-79
2023/09/23 08:32:49;;;;;;;3.97;2.80;;;20.20;58.40;;;;;;5046165;27;115084;-80
2023/09/23 08:35:16;;;;;;;4.57;3.10;;;20.20;58.30;;;;;;5029316;27;114797;-80
2023/09/23 08:37:45;;;;;;;4.45;2.95;;;20.20;58.40;;;;;;5013473;27;114454;-79
2023/09/23 08:40:13;;;;;;;5.65;3.60;;;20.20;58.40;;;;;;5030945;27;115123;-79
2023/09/23 08:42:40;;;;;;;4.63;3.30;;;20.20;57.60;;;;;;5012787;27;115623;-78
2023/09/23 08:45:08;;;;;;;4.88;3.33;;;20.00;58.30;;;;;;5029111;27;114632;-80
2023/09/23 08:47:38;;;;;;;4.85;3.30;;;19.90;58.80;;;;;;5012724;27;114271;-80
2023/09/23 08:50:07;;;;;;;4.30;3.08;;;20.00;58.00;;;;;;4997117;27;114376;-80
2023/09/23 08:52:35;;;;;;;4.63;2.70;;;19.90;58.00;;;;;;5029039;27;114931;-79
2023/09/23 08:55:04;;;;;;;4.63;3.15;;;19.90;58.10;;;;;;5046824;27;114725;-81
2023/09/23 08:57:31;;;;;;;4.63;2.83;;;19.90;58.40;;;;;;5047967;27;114313;-80
2023/09/23 08:59:58;;;;;;;3.75;2.55;;;20.00;58.50;;;;;;5047881;27;114371;-80
2023/09/23 09:02:25;;;;;;;4.72;2.60;;;20.10;57.70;;;;;;5028423;27;116322;-80
2023/09/23 09:04:57;;;;;;;3.50;2.50;;;20.10;58.10;;;;;;5028703;27;114595;-80
2023/09/23 09:07:33;;;;;;;3.90;2.47;;;20.20;58.00;;;;;;5029208;27;114386;-80
2023/09/23 09:10:00;;;;;;;3.90;2.65;;;20.20;57.70;;;;;;5028374;27;114326;-80
2023/09/23 09:12:28;;;;;;;4.05;2.88;;;20.20;57.70;;;;;;5028192;27;115404;-80
2023/09/23 09:14:55;;;;;;;3.58;2.58;;;20.10;57.60;;;;;;4995198;27;117140;-79
2023/09/23 09:17:22;;;;;;;4.20;2.72;;;20.10;57.50;;;;;;5029255;27;114256;-79
2023/09/23 09:19:50;;;;;;;4.90;3.53;;;20.10;57.30;;;;;;5029925;27;114397;-79
2023/09/23 09:22:17;;;;;;;4.38;3.05;;;20.00;57.90;;;;;;5030072;27;114897;-80
2023/09/23 09:24:46;;;;;;;4.88;3.25;;;20.10;58.20;;;;;;5047589;27;114998;-80
2023/09/23 09:27:14;;;;;;;3.60;2.60;;;20.10;57.70;;;;;;5029522;27;114329;-80
2023/09/23 09:29:41;;;;;;;4.60;2.72;;;20.10;57.90;;;;;;4997002;27;114517;-79
2023/09/23 09:32:10;;;;;;;4.05;2.80;;;20.10;58.00;;;;;;5011554;27;118155;-81
2023/09/23 09:34:46;;;;;;;4.32;3.05;;;20.20;58.00;;;;;;5012457;27;114613;-79
2023/09/23 09:37:14;;;;;;;3.70;2.67;;;20.30;57.90;;;;;;5029133;27;114260;-80
2023/09/23 09:39:55;;;;;;;3.75;2.50;;;20.20;57.80;;;;;;4997307;27;114453;-78
2023/09/23 09:42:33;;;;;;;3.75;2.50;;;20.30;57.80;;;;;;5030031;27;115035;-80
2023/09/23 09:45:00;;;;;;;4.50;2.97;;;20.30;57.80;;;;;;5028359;27;114608;-79
2023/09/23 09:47:27;;;;;;;4.70;3.05;;;20.30;57.80;;;;;;5029119;27;114375;-80
2023/09/23 09:49:55;;;;;;;4.28;2.78;;;20.30;57.50;;;;;;4979764;27;114393;-81
2023/09/23 09:52:23;;;;;;;4.53;2.97;;;20.30;57.50;;;;;;5012137;27;115614;-79
2023/09/23 09:54:59;;;;;;;4.40;2.70;;;20.30;57.50;;;;;;5028478;27;115874;-80
2023/09/23 09:57:28;;;;;;;5.65;3.25;;;20.40;57.50;;;;;;5047329;27;114223;-82
2023/09/23 09:59:59;;;;;;;4.30;2.85;;;20.40;57.30;;;;;;5029611;27;114390;-81
2023/09/23 10:02:27;;;;;;;3.72;2.70;;;20.30;57.50;;;;;;5027708;27;114975;-79
2023/09/23 10:05:01;;;;;;;3.95;2.38;;;20.30;57.50;;;;;;5011548;27;114653;-79
2023/09/23 10:07:48;;;;;;;;;;;20.40;57.50;;;;;;5047962;27;114912;-79
2023/09/23 10:10:15;;;;;;;3.67;2.45;;;20.30;57.40;;;;;;5047072;27;114389;-79
2023/09/23 10:12:51;;;;;;;4.47;2.58;;;20.30;57.60;;;;;;5045956;27;114898;-80
2023/09/23 10:15:26;;;;;;;3.85;2.67;;;20.40;57.50;;;;;;5045585;27;114551;-79
2023/09/23 10:17:54;;;;;;;4.43;2.55;;;20.40;57.30;;;;;;4995211;27;114275;-79
2023/09/23 10:20:32;;;;;;;3.55;2.47;;;20.40;57.30;;;;;;5012438;27;114308;-80
2023/09/23 10:23:00;;;;;;;5.55;2.67;;;20.50;56.80;;;;;;4994420;27;116223;-80
2023/09/23 10:25:40;;;;;;;3.90;2.50;;;20.40;57.10;;;;;;5010134;27;115037;-79
2023/09/23 10:28:07;;;;;;;3.60;2.30;;;20.50;57.00;;;;;;5045745;27;114397;-79
2023/09/23 10:30:35;;;;;;;3.97;2.72;;;20.40;57.20;;;;;;5046112;27;114052;-79
2023/09/23 10:33:02;;;;;;;5.15;2.60;;;20.30;57.10;;;;;;5027544;27;115106;-79
2023/09/23 10:35:29;;;;;;;4.40;2.40;;;20.40;57.20;;;;;;5045217;27;114677;-79
2023/09/23 10:37:57;;;;;;;3.35;2.10;;;20.40;56.90;;;;;;5046300;27;114378;-80
2023/09/23 10:40:24;;;;;;;4.25;2.30;;;20.40;57.10;;;;;;5048104;27;114073;-80
2023/09/23 10:42:52;;;;;;;3.40;2.05;;;20.40;57.10;;;;;;5048807;27;115353;-79
2023/09/23 10:45:22;;;;;;;4.13;2.60;;;20.50;56.60;;;;;;5049318;27;116493;-80
2023/09/23 10:47:50;;;;;;;4.95;2.63;;;20.50;56.70;;;;;;5050089;27;114233;-78
2023/09/23 10:50:17;;;;;;;4.07;2.80;;;20.50;56.90;;;;;;5049948;27;114313;-79
2023/09/23 10:52:44;;;;;;;4.00;2.45;;;20.50;56.80;;;;;;5048629;27;115905;-80
2023/09/23 10:55:11;;;;;;;3.67;2.50;;;20.50;56.90;;;;;;5030691;27;114705;-80
2023/09/23 10:57:38;;;;;;;3.67;2.50;;;20.50;56.70;;;;;;5050033;27;114038;-79
2023/09/23 11:00:13;;;;;;;3.67;2.63;;;20.50;56.80;;;;;;5049903;27;114078;-80
2023/09/23 11:02:43;;;;;;;3.88;2.50;;;20.40;57.00;;;;;;5031826;27;114871;-79
2023/09/23 11:05:11;;;;;;;3.90;2.83;;;20.40;57.00;;;;;;5030723;27;114739;-79
2023/09/23 11:07:39;;;;;;;4.07;2.63;;;20.50;57.10;;;;;;5030914;27;114292;-79
2023/09/23 11:10:07;;;;;;;4.10;2.60;;;20.40;56.90;;;;;;5032340;27;114581;-79
2023/09/23 11:12:35;;;;;;;4.55;2.90;;;20.30;57.00;;;;;;5013651;27;115038;-79
2023/09/23 11:15:02;;;;;;;4.60;2.88;;;20.30;57.20;;;;;;5030194;27;117546;-80
2023/09/23 11:17:29;;;;;;;5.53;2.95;;;20.30;57.30;;;;;;5048250;27;114283;-80
2023/09/23 11:19:57;;;;;;;5.22;3.22;;;20.30;57.30;;;;;;5049070;27;114363;-80
2023/09/23 11:22:29;;;;;;;6.40;3.60;;;20.30;57.40;;;;;;5029954;27;116420;-79
2023/09/23 11:24:57;;;;;;;5.05;3.28;;;20.30;57.20;;;;;;5048068;27;114696;-79
2023/09/23 11:27:25;;;;;;;7.70;3.60;;;20.30;57.50;;;;;;5048866;27;114609;-79
2023/09/23 11:29:52;;;;;;;5.57;2.90;;;20.30;57.50;;;;;;5031080;27;114474;-80
2023/09/23 11:32:23;;;;;;;4.43;2.97;;;20.30;57.50;;;;;;5013793;27;114890;-79
2023/09/23 11:34:50;;;;;;;4.18;3.00;;;20.20;57.50;;;;;;5048623;27;114803;-79
2023/09/23 11:37:20;;;;;;;5.00;2.92;;;20.00;57.90;;;;;;5049277;27;114328;-79
2023/09/23 11:39:47;;;;;;;4.80;3.20;;;20.00;58.10;;;;;;5031266;27;114284;-80
2023/09/23 11:42:14;;;;;;;5.18;3.17;;;20.00;58.10;;;;;;5029597;27;114923;-79
2023/09/23 11:44:42;;;;;;;9.20;4.00;;;20.00;58.20;;;;;;5030374;27;114729;-79
2023/09/23 11:47:10;;;;;;;5.35;3.72;;;20.00;58.20;;;;;;5031212;27;114177;-80
2023/09/23 11:49:37;;;;;;;7.22;4.13;;;19.90;58.40;;;;;;5031201;27;114400;-80
2023/09/23 11:52:11;;;;;;;5.72;3.40;;;19.90;59.00;;;;;;5029202;27;115481;-79
2023/09/23 11:54:40;;;;;;;5.78;4.47;;;19.80;58.80;;;;;;5048557;27;114946;-78
2023/09/23 11:57:08;;;;;;;5.65;3.78;;;19.90;58.70;;;;;;5030843;27;114496;-80
2023/09/23 11:59:36;;;;;;;6.07;4.25;;;20.00;58.70;;;;;;5031225;27;114298;-79
2023/09/23 12:07:17;;;;;;;4.80;3.47;;;20.20;58.10;;;;;;5027857;27;115141;-78
2023/09/23 12:09:44;;;;;;;6.28;4.28;;;20.00;58.50;;;;;;5027360;28;116392;-79
2023/09/23 12:12:12;;;;;;;5.35;3.72;;;20.10;58.30;;;;;;5010304;28;114352;-80
2023/09/23 12:14:42;;;;;;;6.50;4.30;;;20.20;58.30;;;;;;5027586;28;114962;-81
2023/09/23 12:17:14;;;;;;;6.25;4.22;;;20.20;58.10;;;;;;5009868;28;114593;-80
2023/09/23 12:19:45;;;;;;;9.40;5.40;;;20.20;58.10;;;;;;4993880;28;114530;-79
2023/09/23 12:22:12;;;;;;;4.97;3.28;;;20.20;57.90;;;;;;5011339;28;114210;-80
2023/09/23 12:24:39;;;;;;;6.47;4.40;;;20.20;58.00;;;;;;5026083;27;115184;-80
2023/09/23 12:27:06;;;;;;;7.00;4.40;;;20.20;58.00;;;;;;5010048;28;114325;-79
2023/09/23 12:29:34;;;;;;;8.25;4.80;;;20.30;58.00;;;;;;5010295;28;114279;-78
2023/09/23 12:32:02;;;;;;;8.27;5.03;;;20.20;57.80;;;;;;4977316;28;114153;-81
2023/09/23 12:34:29;;;;;;;6.00;4.28;;;20.30;57.80;;;;;;4993333;28;114930;-80
2023/09/23 12:36:57;;;;;;;8.85;5.78;;;20.30;58.00;;;;;;5009584;28;114600;-80
2023/09/23 12:39:27;;;;;;;8.90;6.57;;;20.30;57.80;;;;;;5010224;28;114322;-80
2023/09/23 12:41:54;;;;;;;9.27;6.43;;;20.30;57.60;;;;;;4978171;28;114280;-79
2023/09/23 12:44:21;;;;;;;9.18;6.50;;;20.40;57.50;;;;;;5027431;28;114577;-80
2023/09/23 12:46:48;;;;;;;7.13;5.35;;;20.50;57.40;;;;;;4992507;28;115655;-79